Flight Track Log - Related Links

Times and Time Zones

All times are in EDT time to prevent confusion due to time zone crossing. See the UCA3599 flight status page for this flight to view local times or setup timezone preferences in your user account.

Time Position Orientation Groundspeed Altitude Reporting Facility
EDT Latitude Longitude Course Direction KTS MPH feet Rate Location/Type
Thu 06:06:33 AM 42.2281 -76.0161 218° Southwest 122 140 3,100  Level New York Center
Thu 06:07:33 AM 42.1931 -76.0525 218° Southwest 181 208 4,200 1,100 Climbing New York Center
Thu 06:08:33 AM 42.1458 -76.0850 207° Southwest 195 224 5,300 1,200 Climbing New York Center
Thu 06:09:33 AM 42.1006 -76.1233 212° Southwest 201 231 6,600 1,150 Climbing New York Center
Thu 06:10:33 AM 42.0569 -76.1644 215° Southwest 201 231 7,600 1,000 Climbing New York Center
Thu 06:11:33 AM 42.0158 -76.2003 213° Southwest 201 231 8,600 1,100 Climbing New York Center
Thu 06:12:33 AM 41.9661 -76.2408 211° Southwest 201 231 9,800 1,050 Climbing New York Center
Thu 06:13:33 AM 41.9206 -76.2817 214° Southwest 201 231 10,700 900 Climbing New York Center
Thu 06:14:33 AM 41.8728 -76.3222 212° Southwest 201 231 11,600 950 Climbing New York Center
Thu 06:15:33 AM 41.8292 -76.3603 213° Southwest 206 237 12,600 1,100 Climbing New York Center
Thu 06:16:33 AM 41.7772 -76.4061 213° Southwest 206 237 13,800 1,100 Climbing New York Center
Thu 06:17:33 AM 41.7253 -76.4489 212° Southwest 211 243 14,800 1,050 Climbing New York Center
Thu 06:18:33 AM 41.6775 -76.4892 212° Southwest 211 243 15,900 600 Climbing New York Center
Thu 06:19:33 AM 41.6297 -76.5294 212° Southwest 221 254 16,000 50 Climbing New York Center
Thu 06:20:33 AM 41.5711 -76.5772 211° Southwest 236 272 16,000  Level New York Center
Thu 06:21:33 AM 41.5036 -76.6350 213° Southwest 261 300 16,000  Level New York Center
Thu 06:22:33 AM 41.4428 -76.6878 213° Southwest 268 308 16,000  Level New York Center
Thu 06:23:33 AM 41.3794 -76.7431 213° Southwest 268 308 16,000  Level New York Center
Thu 06:24:33 AM 41.3128 -76.7869 206° Southwest 268 308 16,000  Level New York Center
Thu 06:25:33 AM 41.2414 -76.7972 186° South 273 314 16,000  Level New York Center
Thu 06:26:33 AM 41.1636 -76.8122 188° South 280 322 16,000  Level New York Center
Thu 06:27:33 AM 41.0878 -76.8275 189° South 280 322 16,000  Level New York Center
Thu 06:28:33 AM 41.0142 -76.8403 187° South 280 322 16,000  Level New York Center
Thu 06:29:33 AM 40.9278 -76.8600 190° South 280 322 16,000  Level New York Center
Thu 06:30:33 AM 40.8625 -76.8733 189° South 275 316 16,000  Level New York Center
Thu 06:31:33 AM 40.7761 -76.8878 187° South 280 322 16,000  Level New York Center
Thu 06:32:33 AM 40.7125 -76.9094 194° South 280 322 16,000  Level New York Center
Thu 06:33:33 AM 40.6319 -76.9350 194° South 280 322 16,000  Level New York Center
Thu 06:34:33 AM 40.5664 -76.9564 194° South 275 316 16,000  Level New York Center
Thu 06:35:33 AM 40.4836 -76.9819 193° South 275 316 16,000  Level New York Center
Thu 06:36:33 AM 40.4203 -77.0006 193° South 275 316 16,000  Level New York Center
Thu 06:37:33 AM 40.3397 -77.0261 194° South 275 316 16,000  Level New York Center
Thu 06:38:33 AM 40.2717 -77.0472 193° South 275 316 16,000 -350 Level New York Center
Thu 06:39:33 AM 40.1911 -77.0725 193° South 275 316 15,300 -1,224 Descending New York Center
Thu 06:41:05 AM 40.0667 -77.1000 190° South 301 346 12,900 -1,539 Descending Potomac TRACON
Thu 06:42:05 AM 39.9833 -77.1333 197° South 291 335 11,400 -1,619 Descending Potomac TRACON
Thu 06:43:11 AM 39.9000 -77.1667 197° South 272 313 9,500 -1,650 Descending Potomac TRACON
Thu 06:44:05 AM 39.8500 -77.2000 207° Southwest 261 300 8,100 -833 Descending Potomac TRACON
Thu 06:44:59 AM 39.8000 -77.2333 207° Southwest 240 276 8,000 -611 Descending Potomac TRACON
Thu 06:45:53 AM 39.7333 -77.2667 201° Southwest 265 305 7,000 -526 Descending Potomac TRACON
Thu 06:46:53 AM 39.6667 -77.3167 210° Southwest 256 295 7,000  Level Potomac TRACON
Thu 06:47:53 AM 39.6000 -77.3500 201° Southwest 254 292 7,000 -250 Level Potomac TRACON
Thu 06:48:53 AM 39.5500 -77.4167 226° Southwest 248 285 6,500 -556 Descending Potomac TRACON
Thu 06:49:41 AM 39.5167 -77.4667 229° Southwest 259 298 6,000 -611 Descending Potomac TRACON
Thu 06:50:41 AM 39.4500 -77.4667 180° South 272 313 5,400 -810 Descending Potomac TRACON
Thu 06:51:47 AM 39.3667 -77.4333 163° South 282 325 4,300 -700 Descending Potomac TRACON
Thu 06:52:41 AM 39.3000 -77.4333 180° South 272 313 4,000 -632 Descending Potomac TRACON
Thu 06:53:41 AM 39.2333 -77.4333 180° South 239 275 3,100 -526 Descending Potomac TRACON
Thu 06:54:35 AM 39.1833 -77.4333 180° South 214 246 3,000 -53 Descending Potomac TRACON
Thu 06:55:35 AM 39.1333 -77.4333 180° South 195 224 3,000 -158 Level Potomac TRACON
Thu 06:56:29 AM 39.0833 -77.4333 180° South 202 232 2,700 -789 Descending Potomac TRACON
Thu 06:57:29 AM 39.0167 -77.4333 180° South 189 217 1,500 -1,000 Descending Potomac TRACON
Thu 06:58:23 AM 38.9833 -77.4333 180° South 149 171 800 -778 Descending Potomac TRACON

Login

Don't have an account? Register now (free) for customized features, flight alerts, and more!